sensor_id;sensor_type;location;lat;lon;timestamp;P1;durP1;ratioP1;P2;durP2;ratioP2
18100;SDS011;9177;49.156;8.142;2024-02-21T00:01:35;7.47;;;3.37;;
18100;SDS011;9177;49.156;8.142;2024-02-21T00:04:02;7.20;;;3.60;;
18100;SDS011;9177;49.156;8.142;2024-02-21T00:06:29;8.00;;;3.93;;
18100;SDS011;9177;49.156;8.142;2024-02-21T00:08:56;6.30;;;3.40;;
18100;SDS011;9177;49.156;8.142;2024-02-21T00:11:23;7.77;;;3.30;;
18100;SDS011;9177;49.156;8.142;2024-02-21T00:13:50;6.10;;;3.63;;
18100;SDS011;9177;49.156;8.142;2024-02-21T00:16:17;7.73;;;3.33;;
18100;SDS011;9177;49.156;8.142;2024-02-21T00:18:49;7.47;;;3.40;;
18100;SDS011;9177;49.156;8.142;2024-02-21T00:21:16;8.07;;;3.87;;
18100;SDS011;9177;49.156;8.142;2024-02-21T00:23:43;6.40;;;3.30;;
18100;SDS011;9177;49.156;8.142;2024-02-21T00:26:11;6.20;;;3.40;;
18100;SDS011;9177;49.156;8.142;2024-02-21T00:28:38;5.30;;;3.17;;
18100;SDS011;9177;49.156;8.142;2024-02-21T00:31:05;5.13;;;3.10;;
18100;SDS011;9177;49.156;8.142;2024-02-21T00:33:32;6.73;;;3.07;;
18100;SDS011;9177;49.156;8.142;2024-02-21T00:36:00;5.23;;;3.27;;
18100;SDS011;9177;49.156;8.142;2024-02-21T00:38:27;7.07;;;2.97;;
18100;SDS011;9177;49.156;8.142;2024-02-21T00:40:54;4.93;;;3.00;;
18100;SDS011;9177;49.156;8.142;2024-02-21T00:43:21;6.60;;;3.20;;
18100;SDS011;9177;49.156;8.142;2024-02-21T00:45:49;8.13;;;3.37;;
18100;SDS011;9177;49.156;8.142;2024-02-21T00:48:16;4.80;;;3.07;;
18100;SDS011;9177;49.156;8.142;2024-02-21T00:50:43;5.17;;;3.17;;
18100;SDS011;9177;49.156;8.142;2024-02-21T00:53:11;6.67;;;2.90;;
18100;SDS011;9177;49.156;8.142;2024-02-21T00:55:41;8.10;;;3.03;;
18100;SDS011;9177;49.156;8.142;2024-02-21T00:58:09;5.33;;;3.10;;
18100;SDS011;9177;49.156;8.142;2024-02-21T01:00:36;5.10;;;3.13;;
18100;SDS011;9177;49.156;8.142;2024-02-21T01:03:03;7.73;;;3.10;;
18100;SDS011;9177;49.156;8.142;2024-02-21T01:05:30;5.93;;;3.37;;
18100;SDS011;9177;49.156;8.142;2024-02-21T01:07:56;5.60;;;2.63;;
18100;SDS011;9177;49.156;8.142;2024-02-21T01:10:25;7.90;;;3.27;;
18100;SDS011;9177;49.156;8.142;2024-02-21T01:12:52;6.67;;;3.00;;
18100;SDS011;9177;49.156;8.142;2024-02-21T01:15:19;7.37;;;3.10;;
18100;SDS011;9177;49.156;8.142;2024-02-21T01:17:46;5.40;;;2.60;;
18100;SDS011;9177;49.156;8.142;2024-02-21T01:20:14;3.77;;;2.30;;
18100;SDS011;9177;49.156;8.142;2024-02-21T01:22:42;5.13;;;3.00;;
18100;SDS011;9177;49.156;8.142;2024-02-21T01:25:09;6.40;;;2.93;;
18100;SDS011;9177;49.156;8.142;2024-02-21T01:27:37;6.90;;;2.97;;
18100;SDS011;9177;49.156;8.142;2024-02-21T01:30:05;5.10;;;2.70;;
18100;SDS011;9177;49.156;8.142;2024-02-21T01:32:32;4.87;;;2.83;;
18100;SDS011;9177;49.156;8.142;2024-02-21T01:35:00;6.17;;;2.63;;
18100;SDS011;9177;49.156;8.142;2024-02-21T01:37:27;5.43;;;2.83;;
18100;SDS011;9177;49.156;8.142;2024-02-21T01:39:54;6.00;;;2.63;;
18100;SDS011;9177;49.156;8.142;2024-02-21T01:42:21;3.97;;;2.60;;
18100;SDS011;9177;49.156;8.142;2024-02-21T01:44:49;5.93;;;2.90;;
18100;SDS011;9177;49.156;8.142;2024-02-21T01:47:16;4.57;;;2.50;;
18100;SDS011;9177;49.156;8.142;2024-02-21T01:49:43;8.33;;;2.90;;
18100;SDS011;9177;49.156;8.142;2024-02-21T01:52:11;4.30;;;3.00;;
18100;SDS011;9177;49.156;8.142;2024-02-21T01:54:42;4.43;;;2.70;;
18100;SDS011;9177;49.156;8.142;2024-02-21T01:57:10;5.63;;;3.27;;
18100;SDS011;9177;49.156;8.142;2024-02-21T01:59:38;4.57;;;2.70;;
18100;SDS011;9177;49.156;8.142;2024-02-21T02:02:06;4.30;;;2.40;;
18100;SDS011;9177;49.156;8.142;2024-02-21T02:04:33;5.30;;;2.77;;
18100;SDS011;9177;49.156;8.142;2024-02-21T02:07:02;3.73;;;2.30;;
18100;SDS011;9177;49.156;8.142;2024-02-21T02:09:30;3.80;;;2.80;;
18100;SDS011;9177;49.156;8.142;2024-02-21T02:11:57;4.83;;;2.53;;
18100;SDS011;9177;49.156;8.142;2024-02-21T02:14:24;4.67;;;2.70;;
18100;SDS011;9177;49.156;8.142;2024-02-21T02:16:51;3.67;;;2.30;;
18100;SDS011;9177;49.156;8.142;2024-02-21T02:19:19;5.50;;;2.97;;
18100;SDS011;9177;49.156;8.142;2024-02-21T02:21:49;5.73;;;3.10;;
18100;SDS011;9177;49.156;8.142;2024-02-21T02:24:23;4.37;;;2.33;;
18100;SDS011;9177;49.156;8.142;2024-02-21T02:26:51;4.13;;;2.70;;
18100;SDS011;9177;49.156;8.142;2024-02-21T02:29:18;3.83;;;2.40;;
18100;SDS011;9177;49.156;8.142;2024-02-21T02:31:45;4.90;;;2.63;;
18100;SDS011;9177;49.156;8.142;2024-02-21T02:34:12;4.67;;;2.50;;
18100;SDS011;9177;49.156;8.142;2024-02-21T02:36:39;5.83;;;2.70;;
18100;SDS011;9177;49.156;8.142;2024-02-21T02:39:06;6.13;;;2.50;;
18100;SDS011;9177;49.156;8.142;2024-02-21T02:41:36;4.80;;;2.80;;
18100;SDS011;9177;49.156;8.142;2024-02-21T02:44:03;4.90;;;2.40;;
18100;SDS011;9177;49.156;8.142;2024-02-21T02:46:30;5.27;;;2.77;;
18100;SDS011;9177;49.156;8.142;2024-02-21T02:48:56;5.70;;;2.83;;
18100;SDS011;9177;49.156;8.142;2024-02-21T02:51:23;4.60;;;2.33;;
18100;SDS011;9177;49.156;8.142;2024-02-21T02:53:50;4.47;;;2.40;;
18100;SDS011;9177;49.156;8.142;2024-02-21T02:56:17;4.13;;;2.37;;
18100;SDS011;9177;49.156;8.142;2024-02-21T02:58:45;5.50;;;2.30;;
18100;SDS011;9177;49.156;8.142;2024-02-21T03:01:12;5.33;;;2.60;;
18100;SDS011;9177;49.156;8.142;2024-02-21T03:03:40;5.07;;;2.60;;
18100;SDS011;9177;49.156;8.142;2024-02-21T03:06:06;4.93;;;2.50;;
18100;SDS011;9177;49.156;8.142;2024-02-21T03:08:33;4.10;;;2.40;;
18100;SDS011;9177;49.156;8.142;2024-02-21T03:11:00;4.47;;;2.50;;
18100;SDS011;9177;49.156;8.142;2024-02-21T03:13:28;5.23;;;2.40;;
18100;SDS011;9177;49.156;8.142;2024-02-21T03:15:56;4.13;;;2.53;;
18100;SDS011;9177;49.156;8.142;2024-02-21T03:18:23;3.67;;;2.30;;
18100;SDS011;9177;49.156;8.142;2024-02-21T03:20:53;4.87;;;2.57;;
18100;SDS011;9177;49.156;8.142;2024-02-21T03:23:20;3.60;;;2.43;;
18100;SDS011;9177;49.156;8.142;2024-02-21T03:25:47;4.13;;;2.20;;
18100;SDS011;9177;49.156;8.142;2024-02-21T03:28:14;4.93;;;2.80;;
18100;SDS011;9177;49.156;8.142;2024-02-21T03:30:42;3.77;;;2.37;;
18100;SDS011;9177;49.156;8.142;2024-02-21T03:33:10;4.40;;;2.50;;
18100;SDS011;9177;49.156;8.142;2024-02-21T03:35:37;4.07;;;2.20;;
18100;SDS011;9177;49.156;8.142;2024-02-21T03:38:04;5.80;;;2.67;;
18100;SDS011;9177;49.156;8.142;2024-02-21T03:40:31;4.00;;;2.40;;
18100;SDS011;9177;49.156;8.142;2024-02-21T03:42:58;3.10;;;2.10;;
18100;SDS011;9177;49.156;8.142;2024-02-21T03:45:24;2.77;;;2.00;;
18100;SDS011;9177;49.156;8.142;2024-02-21T03:47:51;4.40;;;2.50;;
18100;SDS011;9177;49.156;8.142;2024-02-21T03:50:19;3.10;;;2.10;;
18100;SDS011;9177;49.156;8.142;2024-02-21T03:52:46;3.70;;;2.20;;
18100;SDS011;9177;49.156;8.142;2024-02-21T03:55:13;3.10;;;2.00;;
18100;SDS011;9177;49.156;8.142;2024-02-21T03:57:40;5.40;;;2.43;;
18100;SDS011;9177;49.156;8.142;2024-02-21T04:00:07;5.07;;;2.33;;
18100;SDS011;9177;49.156;8.142;2024-02-21T04:02:37;3.13;;;2.30;;
18100;SDS011;9177;49.156;8.142;2024-02-21T04:05:04;4.07;;;2.20;;
18100;SDS011;9177;49.156;8.142;2024-02-21T04:07:32;3.13;;;2.03;;
18100;SDS011;9177;49.156;8.142;2024-02-21T04:09:59;3.60;;;2.10;;
18100;SDS011;9177;49.156;8.142;2024-02-21T04:12:26;4.00;;;2.10;;
18100;SDS011;9177;49.156;8.142;2024-02-21T04:14:53;4.13;;;2.40;;
18100;SDS011;9177;49.156;8.142;2024-02-21T04:17:20;4.23;;;2.37;;
18100;SDS011;9177;49.156;8.142;2024-02-21T04:19:47;2.87;;;2.00;;
18100;SDS011;9177;49.156;8.142;2024-02-21T04:22:14;3.93;;;2.03;;
18100;SDS011;9177;49.156;8.142;2024-02-21T04:24:42;4.07;;;2.33;;
18100;SDS011;9177;49.156;8.142;2024-02-21T04:27:09;2.43;;;1.90;;
18100;SDS011;9177;49.156;8.142;2024-02-21T04:29:36;3.27;;;2.10;;
18100;SDS011;9177;49.156;8.142;2024-02-21T04:32:03;2.57;;;1.70;;
18100;SDS011;9177;49.156;8.142;2024-02-21T04:34:30;4.40;;;2.10;;
18100;SDS011;9177;49.156;8.142;2024-02-21T04:36:57;3.83;;;2.33;;
18100;SDS011;9177;49.156;8.142;2024-02-21T04:39:24;4.30;;;2.60;;
18100;SDS011;9177;49.156;8.142;2024-02-21T04:41:52;3.23;;;1.80;;
18100;SDS011;9177;49.156;8.142;2024-02-21T04:44:19;3.57;;;1.73;;
18100;SDS011;9177;49.156;8.142;2024-02-21T04:46:47;3.37;;;2.03;;
18100;SDS011;9177;49.156;8.142;2024-02-21T04:49:14;2.97;;;1.90;;
18100;SDS011;9177;49.156;8.142;2024-02-21T04:51:41;3.43;;;2.33;;
18100;SDS011;9177;49.156;8.142;2024-02-21T04:54:08;4.30;;;2.23;;
18100;SDS011;9177;49.156;8.142;2024-02-21T04:56:35;4.17;;;2.30;;
18100;SDS011;9177;49.156;8.142;2024-02-21T04:59:03;4.30;;;2.20;;
18100;SDS011;9177;49.156;8.142;2024-02-21T05:01:30;6.10;;;2.70;;
18100;SDS011;9177;49.156;8.142;2024-02-21T05:03:57;3.70;;;2.10;;
18100;SDS011;9177;49.156;8.142;2024-02-21T05:06:24;3.57;;;2.20;;
18100;SDS011;9177;49.156;8.142;2024-02-21T05:08:50;4.60;;;2.20;;
18100;SDS011;9177;49.156;8.142;2024-02-21T05:11:18;3.57;;;2.20;;
18100;SDS011;9177;49.156;8.142;2024-02-21T05:13:44;4.03;;;2.17;;
18100;SDS011;9177;49.156;8.142;2024-02-21T05:16:13;5.07;;;2.40;;
18100;SDS011;9177;49.156;8.142;2024-02-21T05:18:40;3.73;;;2.13;;
18100;SDS011;9177;49.156;8.142;2024-02-21T05:21:07;3.37;;;2.20;;
18100;SDS011;9177;49.156;8.142;2024-02-21T05:23:34;4.80;;;2.37;;
18100;SDS011;9177;49.156;8.142;2024-02-21T05:26:01;2.47;;;1.87;;
18100;SDS011;9177;49.156;8.142;2024-02-21T05:28:28;3.13;;;2.00;;
18100;SDS011;9177;49.156;8.142;2024-02-21T05:30:55;2.97;;;2.20;;
18100;SDS011;9177;49.156;8.142;2024-02-21T05:33:24;5.37;;;2.33;;
18100;SDS011;9177;49.156;8.142;2024-02-21T05:35:51;4.17;;;2.40;;
18100;SDS011;9177;49.156;8.142;2024-02-21T05:38:18;4.87;;;2.70;;
18100;SDS011;9177;49.156;8.142;2024-02-21T05:40:45;2.97;;;2.10;;
18100;SDS011;9177;49.156;8.142;2024-02-21T05:43:12;4.67;;;2.17;;
18100;SDS011;9177;49.156;8.142;2024-02-21T05:45:39;4.17;;;2.37;;
18100;SDS011;9177;49.156;8.142;2024-02-21T05:48:07;4.10;;;2.20;;
18100;SDS011;9177;49.156;8.142;2024-02-21T05:50:35;3.03;;;2.00;;
18100;SDS011;9177;49.156;8.142;2024-02-21T05:53:02;3.60;;;2.00;;
18100;SDS011;9177;49.156;8.142;2024-02-21T05:55:29;2.73;;;2.00;;
18100;SDS011;9177;49.156;8.142;2024-02-21T05:57:56;4.77;;;2.50;;
18100;SDS011;9177;49.156;8.142;2024-02-21T06:00:23;3.77;;;2.30;;
18100;SDS011;9177;49.156;8.142;2024-02-21T06:02:50;3.60;;;2.10;;
18100;SDS011;9177;49.156;8.142;2024-02-21T06:05:17;4.33;;;2.23;;
18100;SDS011;9177;49.156;8.142;2024-02-21T06:07:46;3.07;;;2.27;;
18100;SDS011;9177;49.156;8.142;2024-02-21T06:10:12;3.13;;;2.23;;
18100;SDS011;9177;49.156;8.142;2024-02-21T06:12:39;3.40;;;1.90;;
18100;SDS011;9177;49.156;8.142;2024-02-21T06:15:07;3.60;;;2.00;;
18100;SDS011;9177;49.156;8.142;2024-02-21T06:17:34;3.27;;;2.20;;
18100;SDS011;9177;49.156;8.142;2024-02-21T06:20:01;2.70;;;2.13;;
18100;SDS011;9177;49.156;8.142;2024-02-21T06:22:28;3.20;;;2.00;;
18100;SDS011;9177;49.156;8.142;2024-02-21T06:24:58;2.83;;;2.27;;
18100;SDS011;9177;49.156;8.142;2024-02-21T06:27:25;3.73;;;2.30;;
18100;SDS011;9177;49.156;8.142;2024-02-21T06:29:52;3.77;;;2.23;;
18100;SDS011;9177;49.156;8.142;2024-02-21T06:32:19;3.67;;;2.23;;
18100;SDS011;9177;49.156;8.142;2024-02-21T06:34:46;2.87;;;2.10;;
18100;SDS011;9177;49.156;8.142;2024-02-21T06:37:13;2.77;;;1.80;;
18100;SDS011;9177;49.156;8.142;2024-02-21T06:39:39;4.77;;;2.37;;
18100;SDS011;9177;49.156;8.142;2024-02-21T06:42:08;3.53;;;2.30;;
18100;SDS011;9177;49.156;8.142;2024-02-21T06:44:35;3.97;;;2.00;;
18100;SDS011;9177;49.156;8.142;2024-02-21T06:47:05;3.50;;;2.00;;
18100;SDS011;9177;49.156;8.142;2024-02-21T06:49:33;4.07;;;2.20;;
18100;SDS011;9177;49.156;8.142;2024-02-21T06:52:02;3.40;;;2.37;;
18100;SDS011;9177;49.156;8.142;2024-02-21T06:54:30;3.83;;;2.37;;
18100;SDS011;9177;49.156;8.142;2024-02-21T06:56:58;3.90;;;2.13;;
18100;SDS011;9177;49.156;8.142;2024-02-21T06:59:26;3.83;;;2.07;;
18100;SDS011;9177;49.156;8.142;2024-02-21T07:01:53;3.47;;;2.00;;
18100;SDS011;9177;49.156;8.142;2024-02-21T07:04:21;2.10;;;1.90;;
18100;SDS011;9177;49.156;8.142;2024-02-21T07:06:48;3.33;;;2.00;;
18100;SDS011;9177;49.156;8.142;2024-02-21T07:09:15;3.37;;;2.10;;
18100;SDS011;9177;49.156;8.142;2024-02-21T07:11:42;3.27;;;2.13;;
18100;SDS011;9177;49.156;8.142;2024-02-21T07:14:09;4.57;;;2.40;;
18100;SDS011;9177;49.156;8.142;2024-02-21T07:16:37;2.30;;;1.87;;
18100;SDS011;9177;49.156;8.142;2024-02-21T07:19:04;3.47;;;2.20;;
18100;SDS011;9177;49.156;8.142;2024-02-21T07:21:31;4.10;;;2.20;;
18100;SDS011;9177;49.156;8.142;2024-02-21T07:23:58;3.83;;;2.20;;
18100;SDS011;9177;49.156;8.142;2024-02-21T07:26:25;2.93;;;2.13;;
18100;SDS011;9177;49.156;8.142;2024-02-21T07:28:52;2.60;;;2.10;;
18100;SDS011;9177;49.156;8.142;2024-02-21T07:31:18;3.33;;;1.90;;
18100;SDS011;9177;49.156;8.142;2024-02-21T07:33:47;4.40;;;2.40;;
18100;SDS011;9177;49.156;8.142;2024-02-21T07:36:15;4.27;;;2.20;;
18100;SDS011;9177;49.156;8.142;2024-02-21T07:38:50;2.90;;;2.10;;
18100;SDS011;9177;49.156;8.142;2024-02-21T07:41:17;3.10;;;2.20;;
18100;SDS011;9177;49.156;8.142;2024-02-21T07:43:44;2.83;;;1.90;;
18100;SDS011;9177;49.156;8.142;2024-02-21T07:46:11;2.93;;;1.90;;
18100;SDS011;9177;49.156;8.142;2024-02-21T07:48:38;2.40;;;1.97;;
18100;SDS011;9177;49.156;8.142;2024-02-21T07:51:06;3.97;;;2.23;;
18100;SDS011;9177;49.156;8.142;2024-02-21T07:53:33;3.57;;;2.40;;
18100;SDS011;9177;49.156;8.142;2024-02-21T07:56:00;3.00;;;2.17;;
18100;SDS011;9177;49.156;8.142;2024-02-21T07:58:27;3.37;;;2.40;;
18100;SDS011;9177;49.156;8.142;2024-02-21T08:00:54;2.97;;;1.90;;
18100;SDS011;9177;49.156;8.142;2024-02-21T08:03:21;3.37;;;2.40;;
18100;SDS011;9177;49.156;8.142;2024-02-21T08:05:48;2.90;;;2.13;;
18100;SDS011;9177;49.156;8.142;2024-02-21T08:08:16;3.33;;;2.07;;
18100;SDS011;9177;49.156;8.142;2024-02-21T08:10:45;2.77;;;2.03;;
18100;SDS011;9177;49.156;8.142;2024-02-21T08:13:12;3.23;;;2.13;;
18100;SDS011;9177;49.156;8.142;2024-02-21T08:15:39;3.87;;;2.10;;
18100;SDS011;9177;49.156;8.142;2024-02-21T08:18:06;2.67;;;1.80;;
18100;SDS011;9177;49.156;8.142;2024-02-21T08:20:33;2.97;;;2.10;;
18100;SDS011;9177;49.156;8.142;2024-02-21T08:23:00;3.70;;;2.20;;
18100;SDS011;9177;49.156;8.142;2024-02-21T08:25:29;3.13;;;2.23;;
18100;SDS011;9177;49.156;8.142;2024-02-21T08:27:57;3.27;;;2.20;;
18100;SDS011;9177;49.156;8.142;2024-02-21T08:30:25;2.90;;;2.07;;
18100;SDS011;9177;49.156;8.142;2024-02-21T08:32:52;3.37;;;2.17;;
18100;SDS011;9177;49.156;8.142;2024-02-21T08:35:19;2.70;;;2.10;;
18100;SDS011;9177;49.156;8.142;2024-02-21T08:37:47;3.20;;;2.07;;
18100;SDS011;9177;49.156;8.142;2024-02-21T08:40:14;3.63;;;2.40;;
18100;SDS011;9177;49.156;8.142;2024-02-21T08:42:44;3.27;;;2.20;;
18100;SDS011;9177;49.156;8.142;2024-02-21T08:45:10;3.97;;;2.30;;
18100;SDS011;9177;49.156;8.142;2024-02-21T08:47:39;4.27;;;2.30;;
18100;SDS011;9177;49.156;8.142;2024-02-21T08:50:06;3.37;;;2.27;;
18100;SDS011;9177;49.156;8.142;2024-02-21T08:52:35;3.23;;;2.27;;
18100;SDS011;9177;49.156;8.142;2024-02-21T08:55:01;2.50;;;2.10;;
18100;SDS011;9177;49.156;8.142;2024-02-21T08:57:29;3.17;;;2.10;;
18100;SDS011;9177;49.156;8.142;2024-02-21T09:00:03;2.60;;;1.93;;
18100;SDS011;9177;49.156;8.142;2024-02-21T09:02:35;2.93;;;1.90;;
18100;SDS011;9177;49.156;8.142;2024-02-21T09:05:03;2.60;;;2.10;;
18100;SDS011;9177;49.156;8.142;2024-02-21T09:07:31;3.87;;;2.17;;
18100;SDS011;9177;49.156;8.142;2024-02-21T09:09:58;3.00;;;2.10;;
18100;SDS011;9177;49.156;8.142;2024-02-21T09:12:25;2.83;;;2.10;;
18100;SDS011;9177;49.156;8.142;2024-02-21T09:14:53;2.50;;;2.13;;
18100;SDS011;9177;49.156;8.142;2024-02-21T09:17:21;3.47;;;2.10;;
18100;SDS011;9177;49.156;8.142;2024-02-21T09:19:50;3.27;;;2.00;;
18100;SDS011;9177;49.156;8.142;2024-02-21T09:22:16;2.77;;;1.90;;
18100;SDS011;9177;49.156;8.142;2024-02-21T09:24:43;3.30;;;2.20;;
18100;SDS011;9177;49.156;8.142;2024-02-21T09:27:10;4.40;;;2.37;;
18100;SDS011;9177;49.156;8.142;2024-02-21T09:29:37;3.63;;;2.50;;
18100;SDS011;9177;49.156;8.142;2024-02-21T09:32:05;2.80;;;2.20;;
18100;SDS011;9177;49.156;8.142;2024-02-21T09:34:33;2.83;;;1.97;;
18100;SDS011;9177;49.156;8.142;2024-02-21T09:37:00;2.20;;;1.97;;
18100;SDS011;9177;49.156;8.142;2024-02-21T09:39:27;2.43;;;1.90;;
18100;SDS011;9177;49.156;8.142;2024-02-21T09:41:57;3.10;;;2.17;;
18100;SDS011;9177;49.156;8.142;2024-02-21T09:44:30;2.53;;;2.03;;
18100;SDS011;9177;49.156;8.142;2024-02-21T09:47:02;3.10;;;2.07;;
18100;SDS011;9177;49.156;8.142;2024-02-21T09:49:30;2.63;;;2.10;;
18100;SDS011;9177;49.156;8.142;2024-02-21T09:52:01;2.43;;;2.10;;
18100;SDS011;9177;49.156;8.142;2024-02-21T09:54:29;2.77;;;2.00;;
18100;SDS011;9177;49.156;8.142;2024-02-21T09:56:59;3.83;;;2.17;;
18100;SDS011;9177;49.156;8.142;2024-02-21T09:59:26;2.67;;;2.00;;
18100;SDS011;9177;49.156;8.142;2024-02-21T10:01:54;3.03;;;2.10;;
18100;SDS011;9177;49.156;8.142;2024-02-21T10:04:21;2.93;;;2.13;;
18100;SDS011;9177;49.156;8.142;2024-02-21T10:06:48;2.00;;;1.73;;
18100;SDS011;9177;49.156;8.142;2024-02-21T10:09:26;2.67;;;1.97;;
18100;SDS011;9177;49.156;8.142;2024-02-21T10:11:54;3.53;;;2.20;;
18100;SDS011;9177;49.156;8.142;2024-02-21T10:14:21;3.57;;;2.00;;
18100;SDS011;9177;49.156;8.142;2024-02-21T10:16:49;2.73;;;2.20;;
18100;SDS011;9177;49.156;8.142;2024-02-21T10:19:22;2.70;;;2.03;;
18100;SDS011;9177;49.156;8.142;2024-02-21T10:21:59;2.10;;;1.90;;
18100;SDS011;9177;49.156;8.142;2024-02-21T10:24:30;1.93;;;1.60;;
18100;SDS011;9177;49.156;8.142;2024-02-21T10:27:03;2.90;;;2.03;;
18100;SDS011;9177;49.156;8.142;2024-02-21T10:29:33;2.73;;;2.07;;
18100;SDS011;9177;49.156;8.142;2024-02-21T10:32:04;3.10;;;2.10;;
18100;SDS011;9177;49.156;8.142;2024-02-21T10:34:32;2.40;;;2.00;;
18100;SDS011;9177;49.156;8.142;2024-02-21T10:37:00;2.27;;;1.90;;
18100;SDS011;9177;49.156;8.142;2024-02-21T10:39:29;2.60;;;2.10;;
18100;SDS011;9177;49.156;8.142;2024-02-21T10:41:59;2.13;;;1.60;;
18100;SDS011;9177;49.156;8.142;2024-02-21T10:44:29;2.40;;;1.93;;
18100;SDS011;9177;49.156;8.142;2024-02-21T10:46:56;2.67;;;2.03;;
18100;SDS011;9177;49.156;8.142;2024-02-21T10:49:24;2.87;;;2.07;;
18100;SDS011;9177;49.156;8.142;2024-02-21T10:51:54;3.17;;;1.90;;
18100;SDS011;9177;49.156;8.142;2024-02-21T10:54:40;2.10;;;1.90;;
18100;SDS011;9177;49.156;8.142;2024-02-21T10:57:12;2.37;;;1.77;;
18100;SDS011;9177;49.156;8.142;2024-02-21T10:59:39;2.17;;;1.90;;
18100;SDS011;9177;49.156;8.142;2024-02-21T11:02:06;2.37;;;1.70;;
18100;SDS011;9177;49.156;8.142;2024-02-21T11:04:33;3.63;;;1.90;;
18100;SDS011;9177;49.156;8.142;2024-02-21T11:07:02;2.50;;;2.00;;
18100;SDS011;9177;49.156;8.142;2024-02-21T11:09:31;4.50;;;2.17;;
18100;SDS011;9177;49.156;8.142;2024-02-21T11:12:03;2.30;;;1.60;;
18100;SDS011;9177;49.156;8.142;2024-02-21T11:14:31;1.97;;;1.77;;
18100;SDS011;9177;49.156;8.142;2024-02-21T11:17:01;2.53;;;1.90;;
18100;SDS011;9177;49.156;8.142;2024-02-21T11:19:29;3.13;;;2.10;;
18100;SDS011;9177;49.156;8.142;2024-02-21T11:21:56;5.03;;;2.10;;
18100;SDS011;9177;49.156;8.142;2024-02-21T11:24:26;2.77;;;1.93;;
18100;SDS011;9177;49.156;8.142;2024-02-21T11:26:55;2.47;;;1.83;;
18100;SDS011;9177;49.156;8.142;2024-02-21T11:29:26;4.27;;;2.10;;
18100;SDS011;9177;49.156;8.142;2024-02-21T11:31:55;3.80;;;1.90;;
18100;SDS011;9177;49.156;8.142;2024-02-21T11:34:22;4.33;;;2.20;;
18100;SDS011;9177;49.156;8.142;2024-02-21T11:36:49;2.60;;;1.80;;
18100;SDS011;9177;49.156;8.142;2024-02-21T11:39:20;4.57;;;2.40;;
18100;SDS011;9177;49.156;8.142;2024-02-21T11:42:00;3.87;;;2.17;;
18100;SDS011;9177;49.156;8.142;2024-02-21T11:44:30;3.63;;;2.20;;
18100;SDS011;9177;49.156;8.142;2024-02-21T11:46:57;3.60;;;1.73;;
18100;SDS011;9177;49.156;8.142;2024-02-21T11:49:25;6.47;;;2.30;;
18100;SDS011;9177;49.156;8.142;2024-02-21T11:51:57;4.97;;;2.10;;
18100;SDS011;9177;49.156;8.142;2024-02-21T11:54:28;2.57;;;1.80;;
18100;SDS011;9177;49.156;8.142;2024-02-21T11:56:56;2.33;;;1.80;;
18100;SDS011;9177;49.156;8.142;2024-02-21T11:59:23;4.47;;;1.87;;
18100;SDS011;9177;49.156;8.142;2024-02-21T12:01:52;2.73;;;1.67;;
18100;SDS011;9177;49.156;8.142;2024-02-21T12:04:20;2.83;;;1.83;;
18100;SDS011;9177;49.156;8.142;2024-02-21T12:06:49;3.77;;;1.90;;
18100;SDS011;9177;49.156;8.142;2024-02-21T12:09:16;2.60;;;1.87;;
18100;SDS011;9177;49.156;8.142;2024-02-21T12:11:43;2.57;;;1.77;;
18100;SDS011;9177;49.156;8.142;2024-02-21T12:14:15;2.67;;;1.73;;
18100;SDS011;9177;49.156;8.142;2024-02-21T12:16:44;2.37;;;1.80;;
18100;SDS011;9177;49.156;8.142;2024-02-21T12:19:14;2.70;;;1.90;;
18100;SDS011;9177;49.156;8.142;2024-02-21T12:21:42;2.30;;;1.60;;
18100;SDS011;9177;49.156;8.142;2024-02-21T12:24:13;3.93;;;2.10;;
18100;SDS011;9177;49.156;8.142;2024-02-21T12:26:40;3.33;;;2.00;;
18100;SDS011;9177;49.156;8.142;2024-02-21T12:29:07;2.70;;;2.00;;
18100;SDS011;9177;49.156;8.142;2024-02-21T12:31:35;2.77;;;2.00;;
18100;SDS011;9177;49.156;8.142;2024-02-21T12:34:03;2.57;;;1.77;;
18100;SDS011;9177;49.156;8.142;2024-02-21T12:36:31;3.63;;;1.80;;
18100;SDS011;9177;49.156;8.142;2024-02-21T12:38:58;3.20;;;1.90;;
18100;SDS011;9177;49.156;8.142;2024-02-21T12:41:27;2.17;;;1.93;;
18100;SDS011;9177;49.156;8.142;2024-02-21T12:43:55;2.97;;;1.87;;
18100;SDS011;9177;49.156;8.142;2024-02-21T12:46:22;3.60;;;1.80;;
18100;SDS011;9177;49.156;8.142;2024-02-21T12:48:49;2.87;;;1.73;;
18100;SDS011;9177;49.156;8.142;2024-02-21T12:51:16;3.10;;;1.80;;
18100;SDS011;9177;49.156;8.142;2024-02-21T12:53:47;2.83;;;2.27;;
18100;SDS011;9177;49.156;8.142;2024-02-21T12:56:15;2.87;;;1.97;;
18100;SDS011;9177;49.156;8.142;2024-02-21T12:58:42;3.07;;;1.80;;
18100;SDS011;9177;49.156;8.142;2024-02-21T13:01:10;3.10;;;1.70;;
18100;SDS011;9177;49.156;8.142;2024-02-21T13:03:37;2.27;;;1.73;;
18100;SDS011;9177;49.156;8.142;2024-02-21T13:06:04;2.23;;;1.70;;
18100;SDS011;9177;49.156;8.142;2024-02-21T13:08:31;3.37;;;2.00;;
18100;SDS011;9177;49.156;8.142;2024-02-21T13:11:01;4.57;;;2.00;;
18100;SDS011;9177;49.156;8.142;2024-02-21T13:13:27;2.40;;;1.73;;
18100;SDS011;9177;49.156;8.142;2024-02-21T13:15:54;2.57;;;1.80;;
18100;SDS011;9177;49.156;8.142;2024-02-21T13:18:21;2.63;;;1.80;;
18100;SDS011;9177;49.156;8.142;2024-02-21T13:20:48;3.53;;;1.80;;
18100;SDS011;9177;49.156;8.142;2024-02-21T13:23:15;4.57;;;1.70;;
18100;SDS011;9177;49.156;8.142;2024-02-21T13:25:42;2.57;;;2.00;;
18100;SDS011;9177;49.156;8.142;2024-02-21T13:28:12;2.83;;;1.83;;
18100;SDS011;9177;49.156;8.142;2024-02-21T13:30:41;4.87;;;2.00;;
18100;SDS011;9177;49.156;8.142;2024-02-21T13:33:08;5.07;;;2.23;;
18100;SDS011;9177;49.156;8.142;2024-02-21T13:35:36;4.93;;;2.70;;
18100;SDS011;9177;49.156;8.142;2024-02-21T13:38:04;4.47;;;2.40;;
18100;SDS011;9177;49.156;8.142;2024-02-21T13:40:31;4.83;;;2.27;;
18100;SDS011;9177;49.156;8.142;2024-02-21T13:42:58;4.37;;;2.10;;
18100;SDS011;9177;49.156;8.142;2024-02-21T13:45:27;4.53;;;2.13;;
18100;SDS011;9177;49.156;8.142;2024-02-21T13:47:54;3.97;;;2.03;;
18100;SDS011;9177;49.156;8.142;2024-02-21T13:50:27;5.00;;;2.40;;
18100;SDS011;9177;49.156;8.142;2024-02-21T13:52:56;4.63;;;2.33;;
18100;SDS011;9177;49.156;8.142;2024-02-21T13:55:23;4.27;;;2.10;;
18100;SDS011;9177;49.156;8.142;2024-02-21T13:57:51;4.23;;;2.10;;
18100;SDS011;9177;49.156;8.142;2024-02-21T14:00:18;4.60;;;2.00;;
18100;SDS011;9177;49.156;8.142;2024-02-21T14:02:47;4.07;;;2.00;;
18100;SDS011;9177;49.156;8.142;2024-02-21T14:05:14;5.00;;;2.20;;
18100;SDS011;9177;49.156;8.142;2024-02-21T14:07:40;3.77;;;1.93;;
18100;SDS011;9177;49.156;8.142;2024-02-21T14:10:08;5.57;;;2.07;;
18100;SDS011;9177;49.156;8.142;2024-02-21T14:12:36;6.43;;;2.33;;
18100;SDS011;9177;49.156;8.142;2024-02-21T14:15:04;4.83;;;2.20;;
18100;SDS011;9177;49.156;8.142;2024-02-21T14:17:31;4.87;;;2.53;;
18100;SDS011;9177;49.156;8.142;2024-02-21T14:19:59;4.00;;;2.20;;
18100;SDS011;9177;49.156;8.142;2024-02-21T14:22:26;4.60;;;1.80;;
18100;SDS011;9177;49.156;8.142;2024-02-21T14:24:54;3.70;;;2.40;;
18100;SDS011;9177;49.156;8.142;2024-02-21T14:27:21;3.87;;;1.87;;
18100;SDS011;9177;49.156;8.142;2024-02-21T14:29:48;3.57;;;1.80;;
18100;SDS011;9177;49.156;8.142;2024-02-21T14:32:15;4.83;;;2.27;;
18100;SDS011;9177;49.156;8.142;2024-02-21T14:34:42;3.93;;;1.90;;
18100;SDS011;9177;49.156;8.142;2024-02-21T14:37:11;5.27;;;2.17;;
18100;SDS011;9177;49.156;8.142;2024-02-21T14:39:38;3.17;;;2.10;;
18100;SDS011;9177;49.156;8.142;2024-02-21T14:42:06;5.00;;;2.20;;
18100;SDS011;9177;49.156;8.142;2024-02-21T14:44:34;3.40;;;1.47;;
18100;SDS011;9177;49.156;8.142;2024-02-21T14:47:01;3.87;;;2.00;;
18100;SDS011;9177;49.156;8.142;2024-02-21T14:49:28;3.23;;;1.87;;
18100;SDS011;9177;49.156;8.142;2024-02-21T14:51:55;3.40;;;1.90;;
18100;SDS011;9177;49.156;8.142;2024-02-21T14:54:23;4.60;;;2.27;;
18100;SDS011;9177;49.156;8.142;2024-02-21T14:56:51;4.57;;;1.90;;
18100;SDS011;9177;49.156;8.142;2024-02-21T14:59:19;3.73;;;2.00;;
18100;SDS011;9177;49.156;8.142;2024-02-21T15:01:46;2.63;;;1.53;;
18100;SDS011;9177;49.156;8.142;2024-02-21T15:04:13;3.10;;;1.90;;